Terminal Aerodrome Forecast
Issued by NWS

Home | Current Version | Previous Version | Text Only | Print | Product List | Glossary Off
Versions: 1 2 3 4 5 6 7 8 9 10 11 12 13 14 15 16 17 18

000
FTUS43 KMPX 221120
TAFRWF
TAF
KRWF 221120Z 2212/2312 03005KT 6SM BR VCSH OVC006
      TEMPO 2212/2216 4SM BR OVC003
     FM221600 04008KT 6SM BR OVC009
     FM222100 06004KT P6SM VCSH OVC015
     FM230300 04005KT 4SM BR OVC005=

USA.gov is the U.S. government's official web portal to all federal, state and local government web resources and services.